Aviation Digital Data Service (ADDS)

Output produced by METARs form (0849 UTC 18 August 2017)
found at http://aviationweather.gov/adds/metars/
 
METAR text: KONP 180835Z AUTO 00000KT 7SM CLR 09/08 A3019 RMK AO2
Conditions at: KONP (NEWPORT , OR, US) observed 0835 UTC 18 August 2017
Temperature: 9.0°C (48°F)
Dewpoint: 8.0°C (46°F) [RH = 93%]
Pressure (altimeter): 30.19 inches Hg (1022.4 mb)
Winds: calm
Visibility: 7 miles (11 km)
Ceiling: at least 12,000 feet AGL
Clouds: sky clear below 12,000 feet AGL
Weather: automated observation with no human augmentation;
there may or may not be significant weather present at this time

METAR text: KONP 180815Z AUTO 00000KT 7SM CLR 08/08 A3019 RMK AO2
Conditions at: KONP (NEWPORT , OR, US) observed 0815 UTC 18 August 2017
Temperature: 8.0°C (46°F)
Dewpoint: 8.0°C (46°F) [RH = 100%]
Pressure (altimeter): 30.19 inches Hg (1022.4 mb)
Winds: calm
Visibility: 7 miles (11 km)
Ceiling: at least 12,000 feet AGL
Clouds: sky clear below 12,000 feet AGL
Weather: automated observation with no human augmentation;
there may or may not be significant weather present at this time

METAR text: KONP 180755Z AUTO 00000KT 7SM CLR 09/08 A3019 RMK AO2
Conditions at: KONP (NEWPORT , OR, US) observed 0755 UTC 18 August 2017
Temperature: 9.0°C (48°F)
Dewpoint: 8.0°C (46°F) [RH = 93%]
Pressure (altimeter): 30.19 inches Hg (1022.4 mb)
Winds: calm
Visibility: 7 miles (11 km)
Ceiling: at least 12,000 feet AGL
Clouds: sky clear below 12,000 feet AGL
Weather: automated observation with no human augmentation;
there may or may not be significant weather present at this time

METAR text: KONP 180735Z AUTO 00000KT 5SM BR CLR 11/10 A3019 RMK AO2
Conditions at: KONP (NEWPORT , OR, US) observed 0735 UTC 18 August 2017
Temperature: 11.0°C (52°F)
Dewpoint: 10.0°C (50°F) [RH = 94%]
Pressure (altimeter): 30.19 inches Hg (1022.4 mb)
Winds: calm
Visibility: 5 miles (8 km)
Ceiling: at least 12,000 feet AGL
Clouds: sky clear below 12,000 feet AGL
Weather: BR  (mist)

METAR text: KONP 180715Z AUTO 00000KT 5SM BR CLR 10/09 A3020 RMK AO2
Conditions at: KONP (NEWPORT , OR, US) observed 0715 UTC 18 August 2017
Temperature: 10.0°C (50°F)
Dewpoint: 9.0°C (48°F) [RH = 93%]
Pressure (altimeter): 30.20 inches Hg (1022.8 mb)
Winds: calm
Visibility: 5 miles (8 km)
Ceiling: at least 12,000 feet AGL
Clouds: sky clear below 12,000 feet AGL
Weather: BR  (mist)

METAR text: KONP 180655Z AUTO 35004KT 5SM BR CLR 11/10 A3019 RMK AO2
Conditions at: KONP (NEWPORT , OR, US) observed 0655 UTC 18 August 2017
Temperature: 11.0°C (52°F)
Dewpoint: 10.0°C (50°F) [RH = 94%]
Pressure (altimeter): 30.19 inches Hg (1022.4 mb)
Winds: from the N (350 degrees) at 5 MPH (4 knots; 2.1 m/s)
Visibility: 5 miles (8 km)
Ceiling: at least 12,000 feet AGL
Clouds: sky clear below 12,000 feet AGL
Weather: BR  (mist)

Forecast for: KONP (NEWPORT , OR, US)
Text: KONP 180520Z 1806/1906 34010KT P6SM FEW015
Forecast period: 0600 to 0900 UTC 18 August 2017
Forecast type: FROM: standard forecast or significant change
Winds: from the NNW (340 degrees) at 12 MPH (10 knots; 5.2 m/s)
Visibility: 6 or more miles (10+ km)
Clouds: few clouds at 1500 feet AGL
Weather: no significant weather forecast for this period
Text: FM180900 VRB03KT P6SM BKN012
Forecast period: 0900 to 1600 UTC 18 August 2017
Forecast type: FROM: standard forecast or significant change
Winds: variable direction winds at 3 MPH (3 knots; 1.6 m/s)
Visibility: 6 or more miles (10+ km)
Ceiling: 1200 feet AGL
Clouds: broken clouds at 1200 feet AGL
Weather: no significant weather forecast for this period
Text: FM181600 35009KT P6SM SCT015
Forecast period: 1600 to 2100 UTC 18 August 2017
Forecast type: FROM: standard forecast or significant change
Winds: from the N (350 degrees) at 10 MPH (9 knots; 4.7 m/s)
Visibility: 6 or more miles (10+ km)
Clouds: scattered clouds at 1500 feet AGL
Weather: no significant weather forecast for this period
Text: FM182100 35015G22KT P6SM SKC
Forecast period: 2100 UTC 18 August 2017 to 0600 UTC 19 August 2017
Forecast type: FROM: standard forecast or significant change
Winds: from the N (350 degrees) at 17 MPH (15 knots; 7.8 m/s)
gusting to 25 MPH (22 knots; 11.4 m/s)
Visibility: 6 or more miles (10+ km)
Clouds: clear skies
Weather: no significant weather forecast for this period